Time;durP1;ratioP1;P1;durP2;ratioP2;P2;SDS_P1;SDS_P2;PMS_P1;PMS_P2;Temp;Humidity;BMP_temperature;BMP_pressure;BME280_temperature;BME280_humidity;BME280_pressure;Samples;Min_cycle;Max_cycle;Signal;HPM_P1;HPM_P2
2023/05/17 00:02:21;;;;;;;6.55;3.47;;;16.20;48.70;;;;;;4939150;28;20051;-87
2023/05/17 00:04:47;;;;;;;6.38;3.03;;;16.10;48.60;;;;;;4940276;28;20074;-88
2023/05/17 00:07:13;;;;;;;6.22;3.13;;;16.10;48.80;;;;;;4942742;28;20071;-89
2023/05/17 00:09:39;;;;;;;4.75;2.83;;;16.00;48.70;;;;;;4937607;28;20046;-88
2023/05/17 00:12:05;;;;;;;4.28;3.17;;;16.00;48.80;;;;;;4936689;28;20512;-87
2023/05/17 00:14:32;;;;;;;5.18;2.97;;;15.90;48.80;;;;;;4941424;28;20035;-87
2023/05/17 00:16:57;;;;;;;3.80;2.80;;;15.90;48.90;;;;;;4944915;28;20507;-87
2023/05/17 00:19:23;;;;;;;3.97;3.10;;;15.80;48.90;;;;;;4946084;28;20475;-88
2023/05/17 00:21:49;;;;;;;4.25;3.08;;;15.80;49.00;;;;;;4938729;28;20084;-89
2023/05/17 00:24:15;;;;;;;4.25;2.80;;;15.70;49.00;;;;;;4936134;28;20156;-88
2023/05/17 00:26:41;;;;;;;4.70;2.83;;;15.60;48.90;;;;;;4930912;28;20090;-90
2023/05/17 00:29:07;;;;;;;4.90;2.97;;;15.60;49.00;;;;;;4927635;28;20059;-90
2023/05/17 00:31:33;;;;;;;4.60;3.25;;;15.50;49.00;;;;;;4935444;28;20093;-89
2023/05/17 00:33:59;;;;;;;4.65;3.13;;;15.50;49.10;;;;;;4936583;28;20047;-88
2023/05/17 00:36:25;;;;;;;5.53;3.00;;;15.50;49.30;;;;;;4935719;28;20089;-87
2023/05/17 00:38:50;;;;;;;3.65;2.60;;;15.40;49.20;;;;;;4941975;28;20282;-88
2023/05/17 00:41:17;;;;;;;4.78;2.70;;;15.40;49.30;;;;;;4928706;28;20584;-88
2023/05/17 00:43:43;;;;;;;3.97;2.80;;;15.30;49.30;;;;;;4929990;28;20049;-86
2023/05/17 00:46:09;;;;;;;6.10;2.78;;;15.30;49.40;;;;;;4924392;28;20036;-89
2023/05/17 00:48:35;;;;;;;4.85;3.35;;;15.20;49.30;;;;;;4938749;28;20418;-88
2023/05/17 00:51:01;;;;;;;4.63;3.13;;;15.20;49.40;;;;;;4951880;28;20046;-89
2023/05/17 00:53:28;;;;;;;4.25;3.15;;;15.10;49.30;;;;;;4937754;28;20416;-88
2023/05/17 00:55:55;;;;;;;4.53;2.80;;;15.10;49.40;;;;;;4938252;28;20101;-88
2023/05/17 00:58:21;;;;;;;5.88;3.30;;;15.10;49.60;;;;;;4942484;28;20038;-89
2023/05/17 01:00:48;;;;;;;6.75;3.08;;;15.00;49.50;;;;;;4944538;28;20558;-88
2023/05/17 01:03:15;;;;;;;5.15;2.92;;;15.00;49.60;;;;;;4940521;28;20141;-87
2023/05/17 01:05:41;;;;;;;3.97;3.28;;;14.90;49.60;;;;;;4940962;28;20038;-86
2023/05/17 01:08:07;;;;;;;4.88;3.00;;;14.90;49.70;;;;;;4943632;28;20027;-85
2023/05/17 01:10:53;;;;;;;4.65;2.80;;;14.90;49.80;;;;;;4947112;28;20046;-86
2023/05/17 01:13:25;;;;;;;3.40;2.30;;;14.80;49.90;;;;;;4938705;28;20082;-87
2023/05/17 01:16:16;;;;;;;4.88;2.90;;;14.80;49.80;;;;;;4944050;28;20031;-87
2023/05/17 01:18:59;;;;;;;3.63;2.63;;;14.70;49.90;;;;;;4945422;28;20086;-85
2023/05/17 01:21:59;;;;;;;4.65;2.58;;;14.70;50.00;;;;;;4940778;28;20172;-87
2023/05/17 01:24:34;;;;;;;5.07;3.78;;;14.60;49.80;;;;;;4940527;28;20043;-86
2023/05/17 01:27:04;;;;;;;3.95;2.55;;;14.60;49.70;;;;;;4942571;28;20041;-86
2023/05/17 01:29:32;;;;;;;4.38;2.75;;;14.50;49.70;;;;;;4940415;28;20042;-87
2023/05/17 01:32:01;;;;;;;3.58;2.60;;;14.50;49.80;;;;;;4942201;28;20153;-87
2023/05/17 01:34:28;;;;;;;4.25;3.03;;;14.50;49.90;;;;;;4934683;28;20367;-87
2023/05/17 01:36:56;;;;;;;4.03;2.90;;;14.40;49.90;;;;;;4934834;28;20031;-89
2023/05/17 01:39:22;;;;;;;5.07;3.40;;;14.40;50.10;;;;;;4948711;28;20042;-90
2023/05/17 01:42:06;;;;;;;5.35;3.40;;;14.30;50.00;;;;;;4938123;28;20589;-90
2023/05/17 01:44:35;;;;;;;3.08;2.60;;;14.30;50.20;;;;;;4935340;28;20047;-90
2023/05/17 01:47:11;;;;;;;4.00;2.58;;;14.20;50.00;;;;;;4946147;28;20046;-87
2023/05/17 01:49:40;;;;;;;4.97;3.00;;;14.20;50.30;;;;;;4952117;28;20472;-86
2023/05/17 01:52:23;;;;;;;4.50;2.65;;;14.20;50.30;;;;;;4952202;28;20058;-87
2023/05/17 01:55:15;;;;;;;5.75;3.13;;;14.10;50.40;;;;;;4950743;28;20050;-86
2023/05/17 01:57:43;;;;;;;5.03;3.10;;;14.10;50.30;;;;;;4955742;28;20130;-87
2023/05/17 02:00:11;;;;;;;4.22;2.42;;;14.00;50.20;;;;;;4951879;28;20050;-87
2023/05/17 02:02:45;;;;;;;5.97;3.67;;;14.00;50.30;;;;;;4950952;28;20043;-87
2023/05/17 02:05:11;;;;;;;5.78;3.28;;;14.00;50.40;;;;;;4950113;28;20121;-86
2023/05/17 02:07:39;;;;;;;3.35;2.75;;;14.00;50.60;;;;;;4950174;28;20401;-87
2023/05/17 02:10:05;;;;;;;4.53;2.75;;;13.90;50.50;;;;;;4951169;28;20050;-86
2023/05/17 02:12:31;;;;;;;3.92;2.80;;;13.90;50.60;;;;;;4947883;28;20102;-86
2023/05/17 02:14:57;;;;;;;5.05;2.88;;;13.80;50.50;;;;;;4941168;28;20177;-86
2023/05/17 02:17:23;;;;;;;5.97;3.08;;;13.80;50.60;;;;;;4955450;28;20038;-85
2023/05/17 02:19:49;;;;;;;3.30;2.45;;;13.80;50.70;;;;;;4950878;28;20038;-87
2023/05/17 02:22:15;;;;;;;4.10;3.10;;;13.70;50.60;;;;;;4946233;28;20513;-87
2023/05/17 02:24:41;;;;;;;3.45;2.63;;;13.70;50.70;;;;;;4949142;28;20059;-86
2023/05/17 02:27:07;;;;;;;4.57;2.95;;;13.70;50.80;;;;;;4948146;28;20034;-87
2023/05/17 02:29:33;;;;;;;6.78;3.10;;;13.60;50.70;;;;;;4952303;28;20167;-87
2023/05/17 02:31:59;;;;;;;4.72;3.65;;;13.60;50.90;;;;;;4957964;28;20038;-85
2023/05/17 02:34:25;;;;;;;5.25;3.15;;;13.60;51.00;;;;;;4949827;28;20814;-86
2023/05/17 02:36:51;;;;;;;4.60;2.72;;;13.50;50.90;;;;;;4948510;28;20063;-87
2023/05/17 02:39:17;;;;;;;4.85;3.00;;;13.50;50.90;;;;;;4933379;28;20051;-86
2023/05/17 02:41:43;;;;;;;4.55;3.15;;;13.40;50.90;;;;;;4944701;28;20408;-87
2023/05/17 02:44:09;;;;;;;4.57;2.92;;;13.40;50.90;;;;;;4946463;28;20051;-86
2023/05/17 02:46:36;;;;;;;4.97;3.53;;;13.40;51.10;;;;;;4949067;28;20686;-88
2023/05/17 02:49:01;;;;;;;3.42;2.70;;;13.30;51.00;;;;;;4957244;28;20052;-88
2023/05/17 02:51:27;;;;;;;4.30;3.03;;;13.30;51.10;;;;;;4945394;28;20038;-83
2023/05/17 02:53:54;;;;;;;4.45;2.95;;;13.30;51.30;;;;;;4970974;28;20051;-88
2023/05/17 02:56:20;;;;;;;4.45;3.08;;;13.20;51.20;;;;;;4946894;28;20373;-89
2023/05/17 02:58:47;;;;;;;5.60;3.13;;;13.20;51.30;;;;;;4974671;28;20035;-89
2023/05/17 03:01:13;;;;;;;5.25;3.05;;;13.10;51.10;;;;;;4980760;28;20045;-83
2023/05/17 03:03:39;;;;;;;5.72;3.67;;;13.10;51.20;;;;;;4979134;28;20039;-89
2023/05/17 03:06:05;;;;;;;4.60;3.88;;;13.10;51.30;;;;;;4970704;28;20427;-89
2023/05/17 03:08:33;;;;;;;3.60;3.22;;;13.00;51.20;;;;;;4942521;28;20039;-87
2023/05/17 03:11:00;;;;;;;3.58;3.05;;;13.00;51.30;;;;;;4940097;28;20111;-87
2023/05/17 03:13:26;;;;;;;4.88;2.80;;;13.00;51.40;;;;;;4958998;28;20090;-86
2023/05/17 03:15:52;;;;;;;4.78;2.67;;;13.00;51.50;;;;;;4929191;28;20122;-87
2023/05/17 03:18:18;;;;;;;3.38;2.75;;;13.00;51.60;;;;;;4947622;29;20427;-89
2023/05/17 03:20:44;;;;;;;4.07;2.92;;;12.90;51.50;;;;;;4949256;28;20637;-88
2023/05/17 03:23:10;;;;;;;4.80;2.65;;;12.90;51.50;;;;;;4947883;28;20055;-89
2023/05/17 03:25:46;;;;;;;4.93;3.10;;;12.90;51.60;;;;;;4947477;28;20043;-81
2023/05/17 03:28:13;;;;;;;3.85;2.67;;;12.90;51.60;;;;;;4948493;28;20031;-82
2023/05/17 03:30:39;;;;;;;3.55;3.10;;;12.90;51.70;;;;;;4933448;28;20042;-82
2023/05/17 03:33:05;;;;;;;5.45;3.42;;;12.80;51.60;;;;;;4951123;28;20122;-81
2023/05/17 03:35:31;;;;;;;4.78;3.00;;;12.80;51.70;;;;;;4948971;28;20113;-82
2023/05/17 03:37:57;;;;;;;3.85;3.17;;;12.70;51.60;;;;;;4947122;28;20274;-81
2023/05/17 03:40:24;;;;;;;4.80;3.30;;;12.70;51.70;;;;;;4949367;28;20443;-83
2023/05/17 03:42:51;;;;;;;4.72;2.97;;;12.60;51.60;;;;;;4946877;28;20121;-80
2023/05/17 03:45:18;;;;;;;4.68;3.20;;;12.60;51.60;;;;;;4954280;28;20415;-81
2023/05/17 03:47:45;;;;;;;5.18;3.10;;;12.60;51.80;;;;;;4942397;28;20052;-82
2023/05/17 03:50:11;;;;;;;4.45;2.75;;;12.60;51.80;;;;;;4935557;28;20554;-83
2023/05/17 03:52:38;;;;;;;3.90;2.90;;;12.50;51.70;;;;;;4947126;28;20130;-85
2023/05/17 03:55:04;;;;;;;4.85;3.05;;;12.50;51.80;;;;;;4950241;28;20038;-85
2023/05/17 03:57:30;;;;;;;3.42;3.05;;;12.40;51.60;;;;;;4948566;28;20117;-84
2023/05/17 03:59:56;;;;;;;5.70;3.20;;;12.40;51.80;;;;;;4948221;28;20613;-83
2023/05/17 04:02:22;;;;;;;3.65;2.92;;;12.40;51.90;;;;;;4948610;28;20031;-88
2023/05/17 04:04:51;;;;;;;3.10;2.65;;;12.40;51.90;;;;;;4949370;28;20039;-88
2023/05/17 04:07:18;;;;;;;3.78;2.75;;;12.40;52.00;;;;;;4948384;28;20042;-87
2023/05/17 04:09:46;;;;;;;5.72;2.80;;;12.30;51.80;;;;;;4949791;28;20460;-88
2023/05/17 04:12:11;;;;;;;3.80;2.83;;;12.30;51.90;;;;;;4948608;28;20039;-87
2023/05/17 04:14:39;;;;;;;3.40;2.95;;;12.30;52.00;;;;;;4943139;28;20028;-88
2023/05/17 04:17:05;;;;;;;3.67;2.80;;;12.30;52.00;;;;;;4942318;28;20122;-89
2023/05/17 04:19:32;;;;;;;3.92;2.90;;;12.30;52.00;;;;;;4942981;28;20070;-87
2023/05/17 04:21:58;;;;;;;4.13;2.90;;;12.30;52.10;;;;;;4942319;28;20035;-89
2023/05/17 04:24:26;;;;;;;3.63;2.67;;;12.20;52.00;;;;;;4948830;28;20039;-87
2023/05/17 04:26:52;;;;;;;3.70;3.03;;;12.20;52.10;;;;;;4947865;28;20027;-88
2023/05/17 04:29:22;;;;;;;3.42;2.60;;;12.20;52.10;;;;;;4945227;29;20047;-88
2023/05/17 04:31:48;;;;;;;3.78;2.80;;;12.10;51.90;;;;;;4938784;28;20035;-87
2023/05/17 04:34:15;;;;;;;4.20;2.92;;;12.20;52.20;;;;;;4946577;28;20427;-86
2023/05/17 04:36:42;;;;;;;4.43;2.70;;;12.10;52.10;;;;;;4945547;28;20027;-88
2023/05/17 04:39:09;;;;;;;3.42;2.72;;;12.20;52.30;;;;;;4939926;28;20055;-88
2023/05/17 04:41:36;;;;;;;3.80;2.80;;;12.10;52.10;;;;;;4946767;28;20391;-88
2023/05/17 04:44:06;;;;;;;4.03;3.28;;;12.10;52.20;;;;;;4942761;29;20046;-87
2023/05/17 04:46:34;;;;;;;4.53;2.95;;;12.10;52.20;;;;;;4938002;28;20515;-86
2023/05/17 04:49:01;;;;;;;3.75;3.00;;;12.10;52.20;;;;;;4946353;28;20073;-85
2023/05/17 04:51:31;;;;;;;7.05;3.22;;;12.10;52.20;;;;;;4939475;28;20579;-84
2023/05/17 04:53:59;;;;;;;4.75;3.22;;;12.10;52.30;;;;;;4948301;28;20171;-86
2023/05/17 04:56:27;;;;;;;4.20;3.55;;;12.10;52.20;;;;;;4949904;28;20042;-87
2023/05/17 04:58:54;;;;;;;5.28;3.00;;;12.10;52.20;;;;;;4949821;28;20050;-87
2023/05/17 05:01:20;;;;;;;3.65;2.78;;;12.10;52.20;;;;;;4943950;28;20880;-86
2023/05/17 05:03:47;;;;;;;4.05;3.20;;;12.20;52.50;;;;;;4944757;28;20047;-82
2023/05/17 05:06:15;;;;;;;5.35;3.03;;;12.20;52.40;;;;;;4940433;28;20049;-83
2023/05/17 05:08:41;;;;;;;4.20;2.55;;;12.20;52.40;;;;;;4943568;28;20089;-83
2023/05/17 05:11:10;;;;;;;3.08;2.55;;;12.30;52.50;;;;;;4942699;28;20618;-82
2023/05/17 05:13:37;;;;;;;3.38;2.63;;;12.30;52.40;;;;;;4943497;28;20037;-83
2023/05/17 05:16:05;;;;;;;4.68;3.00;;;12.40;52.60;;;;;;4950759;28;20509;-84
2023/05/17 05:18:31;;;;;;;5.95;3.28;;;12.40;52.50;;;;;;4940905;28;20039;-85
2023/05/17 05:20:59;;;;;;;3.47;2.50;;;12.50;52.60;;;;;;4954975;28;20043;-87
2023/05/17 05:23:25;;;;;;;3.45;2.72;;;12.50;52.60;;;;;;4955105;28;20427;-84
2023/05/17 05:25:51;;;;;;;3.50;2.53;;;12.60;52.90;;;;;;4946576;28;20063;-91
2023/05/17 05:28:17;;;;;;;5.68;2.80;;;12.70;53.20;;;;;;4944775;28;20063;-94
2023/05/17 05:30:44;;;;;;;3.78;2.60;;;12.80;53.50;;;;;;4947446;28;20039;-90
2023/05/17 05:33:11;;;;;;;5.15;2.75;;;12.90;53.80;;;;;;4959431;28;20034;-87
2023/05/17 05:35:37;;;;;;;4.50;3.20;;;12.90;53.90;;;;;;4948877;28;20039;-87
2023/05/17 05:38:03;;;;;;;5.47;2.70;;;13.00;54.10;;;;;;4953317;28;20439;-88
2023/05/17 05:40:29;;;;;;;3.72;2.70;;;13.00;54.20;;;;;;4952154;28;20043;-85
2023/05/17 05:42:55;;;;;;;4.60;3.00;;;13.10;54.50;;;;;;4949661;28;20098;-88
2023/05/17 05:45:21;;;;;;;5.88;3.15;;;13.10;54.60;;;;;;4948432;28;20383;-88
2023/05/17 05:47:48;;;;;;;3.50;2.30;;;13.20;54.80;;;;;;4951358;28;20346;-89
2023/05/17 05:50:14;;;;;;;5.53;3.10;;;13.30;55.00;;;;;;4954245;28;20462;-89
2023/05/17 05:52:42;;;;;;;4.10;3.78;;;13.30;55.00;;;;;;4950252;28;20038;-90
2023/05/17 05:55:08;;;;;;;5.07;3.85;;;13.50;55.30;;;;;;4959571;28;20402;-87
2023/05/17 05:57:34;;;;;;;3.33;2.38;;;13.60;55.50;;;;;;4953563;28;20038;-85
2023/05/17 06:00:00;;;;;;;5.47;2.85;;;13.80;55.70;;;;;;4947016;28;20054;-86
2023/05/17 06:02:26;;;;;;;2.97;2.60;;;14.00;56.00;;;;;;4938047;29;20031;-87
2023/05/17 06:04:52;;;;;;;4.10;2.83;;;14.10;56.00;;;;;;4944528;28;20129;-86
2023/05/17 06:07:18;;;;;;;4.53;2.72;;;14.40;56.20;;;;;;4951250;28;20035;-90
2023/05/17 06:09:44;;;;;;;3.83;3.03;;;14.60;56.30;;;;;;4945925;28;20042;-86
2023/05/17 06:12:10;;;;;;;5.65;2.85;;;14.90;56.40;;;;;;4957967;28;20364;-87
2023/05/17 06:14:38;;;;;;;4.38;3.03;;;15.30;56.50;;;;;;4942765;28;20151;-85
2023/05/17 06:17:05;;;;;;;3.08;2.75;;;15.60;56.50;;;;;;4949271;28;20031;-87
2023/05/17 06:19:31;;;;;;;3.80;2.28;;;16.00;56.50;;;;;;4944107;28;20353;-85
2023/05/17 06:21:57;;;;;;;5.15;2.78;;;16.40;56.40;;;;;;4948176;28;20035;-87
2023/05/17 06:24:23;;;;;;;3.72;2.58;;;16.90;56.60;;;;;;4950667;28;20090;-92
2023/05/17 06:26:49;;;;;;;4.22;2.90;;;17.40;56.80;;;;;;4958995;28;20034;-96
2023/05/17 06:29:14;;;;;;;7.13;2.92;;;17.80;56.70;;;;;;4942087;28;20077;-87
2023/05/17 06:31:40;;;;;;;3.17;2.60;;;18.10;56.40;;;;;;4925833;29;20646;-88
2023/05/17 06:34:06;;;;;;;4.40;3.05;;;18.40;56.20;;;;;;4947147;28;20047;-88
2023/05/17 06:36:33;;;;;;;4.45;3.08;;;18.60;55.80;;;;;;4944958;28;20038;-89
2023/05/17 06:38:59;;;;;;;3.97;2.88;;;18.80;55.40;;;;;;4945662;28;20546;-91
2023/05/17 06:41:25;;;;;;;5.60;3.72;;;18.90;55.00;;;;;;4953040;28;20038;-87
2023/05/17 06:43:51;;;;;;;4.30;2.85;;;19.00;54.80;;;;;;4941206;28;20205;-86
2023/05/17 06:46:18;;;;;;;6.50;3.38;;;19.10;54.70;;;;;;4936623;28;20670;-87
2023/05/17 06:48:44;;;;;;;5.45;3.78;;;19.30;54.50;;;;;;4944059;28;20047;-85
2023/05/17 06:51:10;;;;;;;5.25;3.00;;;19.50;54.20;;;;;;4941487;28;20035;-85
2023/05/17 06:53:36;;;;;;;6.90;4.10;;;19.80;54.10;;;;;;4939359;28;20031;-85
2023/05/17 06:56:02;;;;;;;3.92;3.53;;;20.00;53.70;;;;;;4927859;28;20035;-86
2023/05/17 06:58:27;;;;;;;6.45;3.92;;;20.30;53.50;;;;;;4940054;28;20038;-87
2023/05/17 07:00:53;;;;;;;4.50;3.30;;;20.60;53.20;;;;;;4951446;28;20464;-86
2023/05/17 07:03:19;;;;;;;5.78;4.10;;;20.90;52.90;;;;;;4947510;28;20054;-86
2023/05/17 07:05:45;;;;;;;4.47;3.20;;;21.20;52.70;;;;;;4956297;28;20473;-85
2023/05/17 07:08:11;;;;;;;5.32;3.50;;;21.40;52.10;;;;;;4949361;28;20511;-87
2023/05/17 07:10:37;;;;;;;6.32;3.95;;;21.70;51.90;;;;;;4940013;28;20411;-88
2023/05/17 07:13:03;;;;;;;3.75;3.20;;;21.80;51.50;;;;;;4943978;28;20118;-87
2023/05/17 07:15:29;;;;;;;7.05;4.20;;;21.80;51.20;;;;;;4961242;28;20043;-84
2023/05/17 07:17:55;;;;;;;3.60;2.92;;;21.90;51.00;;;;;;4961388;28;20039;-89
2023/05/17 07:20:21;;;;;;;6.20;3.85;;;22.10;51.00;;;;;;4979290;28;20353;-90
2023/05/17 07:22:47;;;;;;;5.15;3.45;;;22.30;50.90;;;;;;4965787;28;20046;-87
2023/05/17 07:25:14;;;;;;;6.38;3.95;;;22.40;50.70;;;;;;4985026;28;20066;-87
2023/05/17 07:27:40;;;;;;;5.13;3.58;;;22.60;50.80;;;;;;4961132;28;20042;-85
2023/05/17 07:30:06;;;;;;;5.15;3.10;;;22.60;50.40;;;;;;4974231;28;20046;-86
2023/05/17 07:32:32;;;;;;;4.65;3.65;;;22.60;50.20;;;;;;4947959;28;20373;-84
2023/05/17 07:34:58;;;;;;;6.10;3.70;;;22.60;50.20;;;;;;4940559;28;20094;-86
2023/05/17 07:37:24;;;;;;;5.50;3.92;;;22.60;50.10;;;;;;4943428;28;20031;-86
2023/05/17 07:39:50;;;;;;;6.07;3.88;;;22.70;50.20;;;;;;4957004;28;20398;-91
2023/05/17 07:42:16;;;;;;;6.47;3.72;;;22.80;50.00;;;;;;4943572;28;20031;-87
2023/05/17 07:44:42;;;;;;;8.38;3.58;;;23.00;49.80;;;;;;4932533;28;20558;-87
2023/05/17 07:47:08;;;;;;;5.57;3.20;;;23.20;49.60;;;;;;4942223;28;20376;-83
2023/05/17 07:49:34;;;;;;;5.55;3.33;;;23.30;49.30;;;;;;4944141;28;20132;-83
2023/05/17 07:52:01;;;;;;;5.15;3.95;;;23.30;49.00;;;;;;4945200;28;20485;-82
2023/05/17 07:54:27;;;;;;;5.03;3.85;;;23.40;49.00;;;;;;4945570;28;20557;-85
2023/05/17 07:56:54;;;;;;;4.90;3.42;;;23.30;48.70;;;;;;4945172;28;20031;-89
2023/05/17 07:59:21;;;;;;;5.82;3.58;;;23.30;48.60;;;;;;4940468;28;20047;-86
2023/05/17 08:01:46;;;;;;;5.03;3.22;;;23.20;48.50;;;;;;4939488;28;20036;-87
2023/05/17 08:04:15;;;;;;;5.68;3.42;;;23.20;48.40;;;;;;4948768;28;20419;-86
2023/05/17 08:06:44;;;;;;;5.28;2.88;;;23.10;48.30;;;;;;4947136;28;20038;-87
2023/05/17 08:09:10;;;;;;;7.18;3.83;;;23.00;48.10;;;;;;4942955;28;20089;-86
2023/05/17 08:11:40;;;;;;;5.05;2.92;;;22.90;48.00;;;;;;4946459;28;20498;-82
2023/05/17 08:14:06;;;;;;;3.63;2.78;;;22.90;48.10;;;;;;4942877;28;20118;-82
2023/05/17 08:16:32;;;;;;;8.05;3.65;;;22.80;47.90;;;;;;4941292;28;20507;-86
2023/05/17 08:18:58;;;;;;;4.03;2.88;;;22.80;48.00;;;;;;4950661;28;20049;-84
2023/05/17 08:21:24;;;;;;;5.38;3.50;;;22.80;47.90;;;;;;4937806;28;20157;-84
2023/05/17 08:23:50;;;;;;;5.25;2.65;;;22.90;47.90;;;;;;4940745;28;20075;-85
2023/05/17 08:26:17;;;;;;;7.75;3.42;;;22.90;47.80;;;;;;4945657;28;20023;-83
2023/05/17 08:28:44;;;;;;;6.60;3.30;;;23.00;47.80;;;;;;4943548;28;20443;-83
2023/05/17 08:31:11;;;;;;;5.15;2.95;;;23.10;47.80;;;;;;4942945;28;20106;-83
2023/05/17 08:33:37;;;;;;;6.82;3.05;;;23.20;47.70;;;;;;4940169;28;20039;-85
2023/05/17 08:36:06;;;;;;;4.07;2.97;;;23.30;47.60;;;;;;4940636;28;20651;-84
2023/05/17 08:38:33;;;;;;;4.63;2.83;;;23.40;47.50;;;;;;4937048;28;20442;-84
2023/05/17 08:41:00;;;;;;;6.90;2.95;;;23.60;47.50;;;;;;4940476;28;20035;-84
2023/05/17 08:43:27;;;;;;;3.60;2.35;;;23.80;47.50;;;;;;4938003;28;20043;-83
2023/05/17 08:45:56;;;;;;;3.78;2.20;;;23.90;47.30;;;;;;4935121;28;20588;-84
2023/05/17 08:48:23;;;;;;;3.35;2.80;;;24.10;47.20;;;;;;4949231;28;20200;-82
2023/05/17 08:50:54;;;;;;;4.55;2.50;;;24.30;47.20;;;;;;4945564;28;20035;-82
2023/05/17 08:53:20;;;;;;;4.60;2.35;;;24.50;47.10;;;;;;4939599;28;20035;-82
2023/05/17 08:55:47;;;;;;;5.35;2.70;;;24.60;47.10;;;;;;4936433;28;20035;-82
2023/05/17 08:58:18;;;;;;;2.85;2.30;;;24.70;47.10;;;;;;4934359;28;20591;-92
2023/05/17 09:00:46;;;;;;;3.30;2.25;;;24.80;46.90;;;;;;4954679;28;20145;-89
2023/05/17 09:03:16;;;;;;;4.20;2.15;;;24.90;46.90;;;;;;4946922;28;20030;-88
2023/05/17 09:05:44;;;;;;;3.15;2.22;;;25.00;46.80;;;;;;4942639;28;20031;-88
2023/05/17 09:08:12;;;;;;;3.28;2.13;;;25.00;46.60;;;;;;4951470;28;20035;-87
2023/05/17 09:10:42;;;;;;;4.10;2.22;;;25.10;46.40;;;;;;4942881;28;20123;-85
2023/05/17 09:13:11;;;;;;;3.35;2.42;;;25.20;46.10;;;;;;4945738;28;20495;-86
2023/05/17 09:15:41;;;;;;;3.25;2.13;;;25.30;46.00;;;;;;4946058;28;20050;-86
2023/05/17 09:18:11;;;;;;;4.00;2.42;;;25.40;45.90;;;;;;4942089;28;20243;-87
2023/05/17 09:20:38;;;;;;;2.80;2.47;;;25.50;45.70;;;;;;4940020;28;20102;-87
2023/05/17 09:23:11;;;;;;;5.43;2.17;;;25.60;45.50;;;;;;4939127;28;20514;-87
2023/05/17 09:25:45;;;;;;;4.07;2.58;;;25.80;45.30;;;;;;4937265;28;20277;-87
2023/05/17 09:28:12;;;;;;;5.13;2.55;;;25.90;45.10;;;;;;4925162;28;20484;-88
2023/05/17 09:30:38;;;;;;;3.65;2.50;;;26.00;44.90;;;;;;4937424;28;20215;-86
2023/05/17 09:33:09;;;;;;;5.38;2.72;;;26.10;44.80;;;;;;4924535;29;20121;-86
2023/05/17 09:35:37;;;;;;;4.88;2.28;;;26.20;44.60;;;;;;4947357;28;20058;-88
2023/05/17 09:38:07;;;;;;;4.55;2.50;;;26.30;44.40;;;;;;4938332;28;20031;-88
2023/05/17 09:40:41;;;;;;;4.72;2.58;;;26.30;44.10;;;;;;4939003;28;20224;-89
2023/05/17 09:43:08;;;;;;;3.65;2.25;;;26.40;44.00;;;;;;4937283;28;20300;-86
2023/05/17 09:45:35;;;;;;;3.33;2.67;;;26.40;43.80;;;;;;4935256;28;20487;-86
2023/05/17 09:48:15;;;;;;;4.55;2.67;;;26.40;43.70;;;;;;4940268;28;20047;-85
2023/05/17 09:50:46;;;;;;;4.85;2.78;;;26.40;43.40;;;;;;4935374;28;20032;-84
2023/05/17 09:53:29;;;;;;;4.28;2.95;;;26.40;43.40;;;;;;4934882;28;20948;-86
2023/05/17 09:55:57;;;;;;;3.42;2.53;;;26.50;43.30;;;;;;4935799;28;20071;-84
2023/05/17 09:58:25;;;;;;;5.78;2.75;;;26.50;43.40;;;;;;4935985;28;20309;-84
2023/05/17 10:00:53;;;;;;;4.38;2.92;;;26.50;43.20;;;;;;4937812;28;20049;-83
2023/05/17 10:03:20;;;;;;;5.95;3.00;;;26.60;43.20;;;;;;4935465;28;20070;-83
2023/05/17 10:05:50;;;;;;;5.15;2.40;;;26.60;43.00;;;;;;4939980;28;20519;-87
2023/05/17 10:08:19;;;;;;;4.72;2.97;;;26.70;42.90;;;;;;4938607;28;20500;-88
2023/05/17 10:10:46;;;;;;;4.85;2.97;;;26.70;42.80;;;;;;4936166;28;20099;-88
2023/05/17 10:13:14;;;;;;;4.57;2.95;;;26.70;42.70;;;;;;4925406;28;20043;-88
2023/05/17 10:15:42;;;;;;;5.57;3.17;;;26.70;42.60;;;;;;4943313;28;20562;-89
2023/05/17 10:18:08;;;;;;;4.13;2.90;;;26.70;42.60;;;;;;4944067;28;20637;-85
2023/05/17 10:20:35;;;;;;;3.85;3.13;;;26.70;42.60;;;;;;4940625;28;20035;-91
2023/05/17 10:23:04;;;;;;;6.25;2.40;;;26.70;42.60;;;;;;4944376;28;20039;-87
2023/05/17 10:25:30;;;;;;;5.18;3.35;;;26.70;42.40;;;;;;4940156;28;20377;-86
2023/05/17 10:27:57;;;;;;;4.82;2.63;;;26.80;42.40;;;;;;4943150;28;20039;-84
2023/05/17 10:30:25;;;;;;;3.58;2.50;;;26.90;42.30;;;;;;4944250;28;20483;-85
2023/05/17 10:32:52;;;;;;;3.38;2.60;;;27.00;42.30;;;;;;4939664;28;20195;-88
2023/05/17 10:35:19;;;;;;;3.83;2.30;;;27.10;42.30;;;;;;4947384;28;20042;-87
2023/05/17 10:37:45;;;;;;;5.40;2.83;;;27.30;42.10;;;;;;4937932;28;20042;-87
2023/05/17 10:40:16;;;;;;;4.22;2.65;;;27.30;41.90;;;;;;4942627;28;20380;-89
2023/05/17 10:42:54;;;;;;;4.38;2.50;;;27.40;41.90;;;;;;4938350;28;20090;-84
2023/05/17 10:45:21;;;;;;;3.42;2.40;;;27.50;41.80;;;;;;4939295;28;20511;-86
2023/05/17 10:47:52;;;;;;;2.97;2.60;;;27.60;41.60;;;;;;4948043;28;20039;-86
2023/05/17 10:50:23;;;;;;;5.97;2.50;;;27.70;41.50;;;;;;4945788;28;20501;-85
2023/05/17 10:52:51;;;;;;;4.57;2.67;;;27.80;41.30;;;;;;4950762;28;20033;-88
2023/05/17 10:55:35;;;;;;;4.78;2.67;;;27.90;41.20;;;;;;4944353;28;20032;-86
2023/05/17 10:58:21;;;;;;;4.50;2.30;;;27.90;41.10;;;;;;4952992;28;20190;-86
2023/05/17 11:00:49;;;;;;;3.70;2.45;;;28.10;40.90;;;;;;4938213;28;20547;-86
2023/05/17 11:03:21;;;;;;;4.10;2.92;;;28.20;40.90;;;;;;4946578;28;20858;-87
2023/05/17 11:06:09;;;;;;;3.65;2.83;;;28.20;40.70;;;;;;4944999;28;20039;-85
2023/05/17 11:08:35;;;;;;;3.88;2.63;;;28.20;40.50;;;;;;4944686;28;20043;-86
2023/05/17 11:11:12;;;;;;;4.72;2.85;;;28.20;40.70;;;;;;4942073;28;20251;-83
2023/05/17 11:13:45;;;;;;;3.17;2.83;;;28.20;40.50;;;;;;4940128;28;20040;-84
2023/05/17 11:16:15;;;;;;;3.67;2.83;;;28.20;40.40;;;;;;4950956;28;20399;-86
2023/05/17 11:18:52;;;;;;;3.42;2.53;;;28.30;40.40;;;;;;4939043;28;20513;-87
2023/05/17 11:21:20;;;;;;;5.25;2.50;;;28.40;40.10;;;;;;4946748;28;20075;-86
2023/05/17 11:23:47;;;;;;;3.95;2.85;;;28.60;40.10;;;;;;4941379;28;20039;-92
2023/05/17 11:26:31;;;;;;;2.88;2.35;;;28.70;39.90;;;;;;4931895;28;20097;-84
2023/05/17 11:29:11;;;;;;;4.38;2.45;;;28.80;39.50;;;;;;4941987;28;20031;-88
2023/05/17 11:31:43;;;;;;;4.07;2.47;;;28.90;39.50;;;;;;4942363;28;21038;-87
2023/05/17 11:34:10;;;;;;;3.83;2.40;;;29.20;39.50;;;;;;4938673;28;20114;-88
2023/05/17 11:36:50;;;;;;;4.07;2.40;;;29.40;39.40;;;;;;4940947;28;20042;-87
2023/05/17 11:39:22;;;;;;;3.47;3.17;;;29.60;39.00;;;;;;4939264;28;20683;-87
2023/05/17 11:41:50;;;;;;;3.63;2.70;;;29.50;39.00;;;;;;4939849;28;20516;-87
2023/05/17 11:44:37;;;;;;;4.07;2.70;;;29.40;39.10;;;;;;4929567;28;20626;-86
2023/05/17 11:47:08;;;;;;;4.72;2.70;;;29.30;39.10;;;;;;4940984;28;20198;-86
2023/05/17 11:49:37;;;;;;;3.55;2.78;;;29.20;39.20;;;;;;4938695;28;20093;-86
2023/05/17 11:52:07;;;;;;;3.63;2.33;;;29.40;39.20;;;;;;4943427;28;20039;-85
2023/05/17 11:54:34;;;;;;;3.25;2.30;;;29.60;39.60;;;;;;4924631;29;20039;-86
2023/05/17 11:57:02;;;;;;;3.97;2.70;;;29.90;38.70;;;;;;4937146;28;20039;-88
2023/05/17 11:59:28;;;;;;;2.78;2.30;;;30.30;38.50;;;;;;4952543;28;20513;-85
2023/05/17 12:01:55;;;;;;;3.58;2.50;;;30.60;38.20;;;;;;4941765;28;20046;-87
2023/05/17 12:04:25;;;;;;;4.45;2.65;;;30.70;38.10;;;;;;4936628;28;20046;-88
2023/05/17 12:06:53;;;;;;;3.83;3.10;;;30.70;38.00;;;;;;4945462;28;20127;-83
2023/05/17 12:09:19;;;;;;;5.40;3.67;;;30.60;37.90;;;;;;4943317;28;20180;-82
2023/05/17 12:11:46;;;;;;;4.30;3.10;;;30.40;38.00;;;;;;4941663;28;20153;-86
2023/05/17 12:14:17;;;;;;;2.63;2.42;;;30.40;38.00;;;;;;4945129;28;20513;-85
2023/05/17 12:16:45;;;;;;;5.35;2.90;;;30.40;37.90;;;;;;4944544;28;20473;-85
2023/05/17 12:19:19;;;;;;;3.13;2.83;;;30.60;37.90;;;;;;4948702;28;20702;-86
2023/05/17 12:21:46;;;;;;;5.72;2.92;;;30.70;37.60;;;;;;4939959;28;20397;-85
2023/05/17 12:24:12;;;;;;;4.53;2.92;;;30.80;37.60;;;;;;4935927;28;20049;-85
2023/05/17 12:26:43;;;;;;;2.65;2.42;;;30.80;37.40;;;;;;4939065;28;20531;-85
2023/05/17 12:29:10;;;;;;;4.50;2.88;;;30.90;37.30;;;;;;4940460;28;20110;-85
2023/05/17 12:31:42;;;;;;;2.80;2.50;;;30.90;37.30;;;;;;4940400;28;20043;-86
2023/05/17 12:34:11;;;;;;;3.05;2.55;;;31.10;37.30;;;;;;4936765;28;20850;-85
2023/05/17 12:36:37;;;;;;;3.85;2.95;;;31.20;36.90;;;;;;4954775;28;20039;-91
2023/05/17 12:39:05;;;;;;;4.85;3.28;;;31.10;36.30;;;;;;4928522;28;20300;-88
2023/05/17 12:41:31;;;;;;;3.17;2.28;;;30.80;36.10;;;;;;4941266;28;20031;-88
2023/05/17 12:43:57;;;;;;;3.22;2.25;;;30.70;36.50;;;;;;4939508;28;20050;-85
2023/05/17 12:46:24;;;;;;;3.22;2.28;;;30.60;36.90;;;;;;4931247;28;20042;-81
2023/05/17 12:48:53;;;;;;;3.50;2.67;;;30.60;37.10;;;;;;4966427;28;20063;-84
2023/05/17 12:51:21;;;;;;;3.03;2.58;;;30.50;37.40;;;;;;4962969;28;20297;-83
2023/05/17 12:53:56;;;;;;;2.22;1.98;;;30.40;37.50;;;;;;4961098;28;20039;-84